sensor_id;sensor_type;location;lat;lon;timestamp;pressure;altitude;pressure_sealevel;temperature;humidity
4326;BME280;58429;49.826;10.880;2023-02-11T00:00:57;100565;;;-2.01;79.12
4326;BME280;58429;49.826;10.880;2023-02-11T00:01:57;100566;;;-2.02;79.16
4326;BME280;58429;49.826;10.880;2023-02-11T00:02:57;100566;;;-2.01;79.19
4326;BME280;58429;49.826;10.880;2023-02-11T00:03:57;100565;;;-2.03;79.18
4326;BME280;58429;49.826;10.880;2023-02-11T00:04:57;100568;;;-2.02;79.29
4326;BME280;58429;49.826;10.880;2023-02-11T00:05:58;100561;;;-2;79.52
4326;BME280;58429;49.826;10.880;2023-02-11T00:06:57;100566;;;-1.98;79.67
4326;BME280;58429;49.826;10.880;2023-02-11T00:07:57;100566;;;-1.99;79.77
4326;BME280;58429;49.826;10.880;2023-02-11T00:08:57;100560;;;-1.99;79.93
4326;BME280;58429;49.826;10.880;2023-02-11T00:09:57;100559;;;-1.97;80.08
4326;BME280;58429;49.826;10.880;2023-02-11T00:10:57;100552;;;-1.95;80.28
4326;BME280;58429;49.826;10.880;2023-02-11T00:11:57;100556;;;-1.91;80.43
4326;BME280;58429;49.826;10.880;2023-02-11T00:12:57;100551;;;-1.88;80.48
4326;BME280;58429;49.826;10.880;2023-02-11T00:13:58;100555;;;-1.84;80.7
4326;BME280;58429;49.826;10.880;2023-02-11T00:14:57;100556;;;-1.81;80.76
4326;BME280;58429;49.826;10.880;2023-02-11T00:15:57;100557;;;-1.79;80.86
4326;BME280;58429;49.826;10.880;2023-02-11T00:16:57;100559;;;-1.76;80.63
4326;BME280;58429;49.826;10.880;2023-02-11T00:17:57;100565;;;-1.76;80.38
4326;BME280;58429;49.826;10.880;2023-02-11T00:18:57;100564;;;-1.79;80.19
4326;BME280;58429;49.826;10.880;2023-02-11T00:19:57;100563;;;-1.88;79.91
4326;BME280;58429;49.826;10.880;2023-02-11T00:20:57;100572;;;-1.9;79.77
4326;BME280;58429;49.826;10.880;2023-02-11T00:21:57;100573;;;-1.92;79.68
4326;BME280;58429;49.826;10.880;2023-02-11T00:22:57;100576;;;-1.93;79.81
4326;BME280;58429;49.826;10.880;2023-02-11T00:23:58;100581;;;-1.94;80.03
4326;BME280;58429;49.826;10.880;2023-02-11T00:24:57;100581;;;-1.94;80.3
4326;BME280;58429;49.826;10.880;2023-02-11T00:25:57;100584;;;-1.92;80.46
4326;BME280;58429;49.826;10.880;2023-02-11T00:26:57;100584;;;-1.86;80.5
4326;BME280;58429;49.826;10.880;2023-02-11T00:27:57;100582;;;-1.88;80.49
4326;BME280;58429;49.826;10.880;2023-02-11T00:28:57;100585;;;-1.88;80.52
4326;BME280;58429;49.826;10.880;2023-02-11T00:29:57;100578;;;-1.82;80.52
4326;BME280;58429;49.826;10.880;2023-02-11T00:30:57;100577;;;-1.81;80.71
4326;BME280;58429;49.826;10.880;2023-02-11T00:31:57;100581;;;-1.77;80.72
4326;BME280;58429;49.826;10.880;2023-02-11T00:32:57;100583;;;-1.78;80.78
4326;BME280;58429;49.826;10.880;2023-02-11T00:33:57;100579;;;-1.72;80.84
4326;BME280;58429;49.826;10.880;2023-02-11T00:34:57;100584;;;-1.7;80.78
4326;BME280;58429;49.826;10.880;2023-02-11T00:35:57;100585;;;-1.7;80.9
4326;BME280;58429;49.826;10.880;2023-02-11T00:36:57;100587;;;-1.68;80.95
4326;BME280;58429;49.826;10.880;2023-02-11T00:37:57;100587;;;-1.66;80.94
4326;BME280;58429;49.826;10.880;2023-02-11T00:38:58;100588;;;-1.66;80.79
4326;BME280;58429;49.826;10.880;2023-02-11T00:39:57;100582;;;-1.66;80.67
4326;BME280;58429;49.826;10.880;2023-02-11T00:40:57;100584;;;-1.63;80.6
4326;BME280;58429;49.826;10.880;2023-02-11T00:41:57;100574;;;-1.63;80.6
4326;BME280;58429;49.826;10.880;2023-02-11T00:42:57;100573;;;-1.6;80.59
4326;BME280;58429;49.826;10.880;2023-02-11T00:43:57;100568;;;-1.62;80.54
4326;BME280;58429;49.826;10.880;2023-02-11T00:44:57;100562;;;-1.65;80.39
4326;BME280;58429;49.826;10.880;2023-02-11T00:45:58;100564;;;-1.66;80.27
4326;BME280;58429;49.826;10.880;2023-02-11T00:46:57;100559;;;-1.68;80.24
4326;BME280;58429;49.826;10.880;2023-02-11T00:47:57;100556;;;-1.66;80.29
4326;BME280;58429;49.826;10.880;2023-02-11T00:48:57;100555;;;-1.66;80.34
4326;BME280;58429;49.826;10.880;2023-02-11T00:49:57;100563;;;-1.66;80.35
4326;BME280;58429;49.826;10.880;2023-02-11T00:50:57;100555;;;-1.63;80.38
4326;BME280;58429;49.826;10.880;2023-02-11T00:51:57;100555;;;-1.66;80.33
4326;BME280;58429;49.826;10.880;2023-02-11T00:52:57;100550;;;-1.64;80.28
4326;BME280;58429;49.826;10.880;2023-02-11T00:53:57;100555;;;-1.63;80.18
4326;BME280;58429;49.826;10.880;2023-02-11T00:54:57;100549;;;-1.66;80.12
4326;BME280;58429;49.826;10.880;2023-02-11T00:56:00;100556;;;-1.66;80.11
4326;BME280;58429;49.826;10.880;2023-02-11T00:56:58;100555;;;-1.66;80.18
4326;BME280;58429;49.826;10.880;2023-02-11T00:57:58;100552;;;-1.66;80.19
4326;BME280;58429;49.826;10.880;2023-02-11T00:58:57;100558;;;-1.65;80.28
4326;BME280;58429;49.826;10.880;2023-02-11T00:59:57;100557;;;-1.67;80.37
4326;BME280;58429;49.826;10.880;2023-02-11T01:00:57;100554;;;-1.67;80.44
4326;BME280;58429;49.826;10.880;2023-02-11T01:01:57;100564;;;-1.65;80.6
4326;BME280;58429;49.826;10.880;2023-02-11T01:02:57;100552;;;-1.63;80.71
4326;BME280;58429;49.826;10.880;2023-02-11T01:03:58;100552;;;-1.6;80.73
4326;BME280;58429;49.826;10.880;2023-02-11T01:04:58;100555;;;-1.6;80.66
4326;BME280;58429;49.826;10.880;2023-02-11T01:05:57;100556;;;-1.59;80.63
4326;BME280;58429;49.826;10.880;2023-02-11T01:06:57;100553;;;-1.58;80.65
4326;BME280;58429;49.826;10.880;2023-02-11T01:07:57;100551;;;-1.57;80.64
4326;BME280;58429;49.826;10.880;2023-02-11T01:08:57;100550;;;-1.56;80.59
4326;BME280;58429;49.826;10.880;2023-02-11T01:09:58;100544;;;-1.54;80.63
4326;BME280;58429;49.826;10.880;2023-02-11T01:10:58;100531;;;-1.54;80.7
4326;BME280;58429;49.826;10.880;2023-02-11T01:11:57;100528;;;-1.56;80.84
4326;BME280;58429;49.826;10.880;2023-02-11T01:12:57;100533;;;-1.56;80.81
4326;BME280;58429;49.826;10.880;2023-02-11T01:13:57;100525;;;-1.55;80.75
4326;BME280;58429;49.826;10.880;2023-02-11T01:14:57;100523;;;-1.54;80.73
4326;BME280;58429;49.826;10.880;2023-02-11T01:15:57;100526;;;-1.52;80.71
4326;BME280;58429;49.826;10.880;2023-02-11T01:16:57;100526;;;-1.48;80.82
4326;BME280;58429;49.826;10.880;2023-02-11T01:17:57;100527;;;-1.51;80.78
4326;BME280;58429;49.826;10.880;2023-02-11T01:18:58;100528;;;-1.48;80.74
4326;BME280;58429;49.826;10.880;2023-02-11T01:19:57;100527;;;-1.5;80.74
4326;BME280;58429;49.826;10.880;2023-02-11T01:20:57;100524;;;-1.45;80.76
4326;BME280;58429;49.826;10.880;2023-02-11T01:21:57;100523;;;-1.47;80.72
4326;BME280;58429;49.826;10.880;2023-02-11T01:22:57;100524;;;-1.41;80.77
4326;BME280;58429;49.826;10.880;2023-02-11T01:23:57;100527;;;-1.43;80.78
4326;BME280;58429;49.826;10.880;2023-02-11T01:24:57;100529;;;-1.37;80.77
4326;BME280;58429;49.826;10.880;2023-02-11T01:25:57;100529;;;-1.39;80.79
4326;BME280;58429;49.826;10.880;2023-02-11T01:26:57;100518;;;-1.35;80.78
4326;BME280;58429;49.826;10.880;2023-02-11T01:27:57;100523;;;-1.36;80.77
4326;BME280;58429;49.826;10.880;2023-02-11T01:28:57;100523;;;-1.36;80.77
4326;BME280;58429;49.826;10.880;2023-02-11T01:29:57;100532;;;-1.32;80.69
4326;BME280;58429;49.826;10.880;2023-02-11T01:30:58;100532;;;-1.33;80.74
4326;BME280;58429;49.826;10.880;2023-02-11T01:31:58;100520;;;-1.31;80.65
4326;BME280;58429;49.826;10.880;2023-02-11T01:32:57;100522;;;-1.32;80.53
4326;BME280;58429;49.826;10.880;2023-02-11T01:33:57;100527;;;-1.28;80.52
4326;BME280;58429;49.826;10.880;2023-02-11T01:34:58;100521;;;-1.28;80.56
4326;BME280;58429;49.826;10.880;2023-02-11T01:35:59;100515;;;-1.27;80.53
4326;BME280;58429;49.826;10.880;2023-02-11T01:36:58;100518;;;-1.27;80.46
4326;BME280;58429;49.826;10.880;2023-02-11T01:37:57;100519;;;-1.28;80.41
4326;BME280;58429;49.826;10.880;2023-02-11T01:38:57;100515;;;-1.3;80.42
4326;BME280;58429;49.826;10.880;2023-02-11T01:39:57;100509;;;-1.26;80.38
4326;BME280;58429;49.826;10.880;2023-02-11T01:40:59;100509;;;-1.3;80.39
4326;BME280;58429;49.826;10.880;2023-02-11T01:41:57;100508;;;-1.27;80.4
4326;BME280;58429;49.826;10.880;2023-02-11T01:42:57;100507;;;-1.3;80.36
4326;BME280;58429;49.826;10.880;2023-02-11T01:43:57;100503;;;-1.29;80.39
4326;BME280;58429;49.826;10.880;2023-02-11T01:44:58;100502;;;-1.29;80.38
4326;BME280;58429;49.826;10.880;2023-02-11T01:45:59;100500;;;-1.27;80.37
4326;BME280;58429;49.826;10.880;2023-02-11T01:46:57;100501;;;-1.27;80.45
4326;BME280;58429;49.826;10.880;2023-02-11T01:47:57;100498;;;-1.28;80.38
4326;BME280;58429;49.826;10.880;2023-02-11T01:48:58;100501;;;-1.24;80.31
4326;BME280;58429;49.826;10.880;2023-02-11T01:49:58;100498;;;-1.23;80.3
4326;BME280;58429;49.826;10.880;2023-02-11T01:50:59;100502;;;-1.23;80.23
4326;BME280;58429;49.826;10.880;2023-02-11T01:51:59;100498;;;-1.23;80.15
4326;BME280;58429;49.826;10.880;2023-02-11T01:52:57;100493;;;-1.23;80.11
4326;BME280;58429;49.826;10.880;2023-02-11T01:53:57;100499;;;-1.23;80.05
4326;BME280;58429;49.826;10.880;2023-02-11T01:54:58;100498;;;-1.23;80.06
4326;BME280;58429;49.826;10.880;2023-02-11T01:55:57;100496;;;-1.22;80.08
4326;BME280;58429;49.826;10.880;2023-02-11T01:56:58;100495;;;-1.22;80.07
4326;BME280;58429;49.826;10.880;2023-02-11T01:57:58;100493;;;-1.22;80.05
4326;BME280;58429;49.826;10.880;2023-02-11T01:58:58;100492;;;-1.24;80.08
4326;BME280;58429;49.826;10.880;2023-02-11T02:00:00;100492;;;-1.26;80.13
4326;BME280;58429;49.826;10.880;2023-02-11T02:00:57;100489;;;-1.24;80.2
4326;BME280;58429;49.826;10.880;2023-02-11T02:01:58;100485;;;-1.24;80.21
4326;BME280;58429;49.826;10.880;2023-02-11T02:02:59;100484;;;-1.25;80.15
4326;BME280;58429;49.826;10.880;2023-02-11T02:03:58;100483;;;-1.24;80.13
4326;BME280;58429;49.826;10.880;2023-02-11T02:04:58;100477;;;-1.24;80.12
4326;BME280;58429;49.826;10.880;2023-02-11T02:05:58;100481;;;-1.22;80.08
4326;BME280;58429;49.826;10.880;2023-02-11T02:06:58;100480;;;-1.22;80.08
4326;BME280;58429;49.826;10.880;2023-02-11T02:07:59;100482;;;-1.25;80.08
4326;BME280;58429;49.826;10.880;2023-02-11T02:08:59;100480;;;-1.25;80.11
4326;BME280;58429;49.826;10.880;2023-02-11T02:09:58;100476;;;-1.25;80.11
4326;BME280;58429;49.826;10.880;2023-02-11T02:10:58;100473;;;-1.28;80.2
4326;BME280;58429;49.826;10.880;2023-02-11T02:11:57;100477;;;-1.3;80.24
4326;BME280;58429;49.826;10.880;2023-02-11T02:12:57;100472;;;-1.28;80.26
4326;BME280;58429;49.826;10.880;2023-02-11T02:13:58;100474;;;-1.31;80.25
4326;BME280;58429;49.826;10.880;2023-02-11T02:15:31;100471;;;-1.32;80.33
4326;BME280;58429;49.826;10.880;2023-02-11T02:15:58;100468;;;-1.34;80.35
4326;BME280;58429;49.826;10.880;2023-02-11T02:16:57;100476;;;-1.3;80.32
4326;BME280;58429;49.826;10.880;2023-02-11T02:17:59;100474;;;-1.31;80.36
4326;BME280;58429;49.826;10.880;2023-02-11T02:19:01;100478;;;-1.3;80.42
4326;BME280;58429;49.826;10.880;2023-02-11T02:20:20;100473;;;-1.32;80.41
4326;BME280;58429;49.826;10.880;2023-02-11T02:21:04;100470;;;-1.34;80.47
4326;BME280;58429;49.826;10.880;2023-02-11T02:22:04;100472;;;-1.28;80.58
4326;BME280;58429;49.826;10.880;2023-02-11T02:23:09;100469;;;-1.31;80.55
4326;BME280;58429;49.826;10.880;2023-02-11T02:24:02;100471;;;-1.29;80.51
4326;BME280;58429;49.826;10.880;2023-02-11T02:24:58;100474;;;-1.31;80.52
4326;BME280;58429;49.826;10.880;2023-02-11T02:26:13;100473;;;-1.27;80.68
4326;BME280;58429;49.826;10.880;2023-02-11T02:27:12;100465;;;-1.31;80.73
4326;BME280;58429;49.826;10.880;2023-02-11T02:27:59;100465;;;-1.3;80.72
4326;BME280;58429;49.826;10.880;2023-02-11T02:29:05;100464;;;-1.31;80.76
4326;BME280;58429;49.826;10.880;2023-02-11T02:30:02;100454;;;-1.31;80.88
4326;BME280;58429;49.826;10.880;2023-02-11T02:31:03;100447;;;-1.33;80.85
4326;BME280;58429;49.826;10.880;2023-02-11T02:33:01;100439;;;-1.32;80.92
4326;BME280;58429;49.826;10.880;2023-02-11T02:33:58;100445;;;-1.34;80.9
4326;BME280;58429;49.826;10.880;2023-02-11T02:35:00;100442;;;-1.34;80.93
4326;BME280;58429;49.826;10.880;2023-02-11T02:36:01;100450;;;-1.35;80.96
4326;BME280;58429;49.826;10.880;2023-02-11T02:36:59;100444;;;-1.34;80.95
4326;BME280;58429;49.826;10.880;2023-02-11T02:38:00;100441;;;-1.28;81.02
4326;BME280;58429;49.826;10.880;2023-02-11T02:38:58;100443;;;-1.33;81.04
4326;BME280;58429;49.826;10.880;2023-02-11T02:39:58;100438;;;-1.29;81.08
4326;BME280;58429;49.826;10.880;2023-02-11T02:40:58;100445;;;-1.24;81.12
4326;BME280;58429;49.826;10.880;2023-02-11T02:41:57;100442;;;-1.3;81.11
4326;BME280;58429;49.826;10.880;2023-02-11T02:42:57;100441;;;-1.28;81.1
4326;BME280;58429;49.826;10.880;2023-02-11T02:43:57;100440;;;-1.28;81.19
4326;BME280;58429;49.826;10.880;2023-02-11T02:44:57;100434;;;-1.29;81.17
4326;BME280;58429;49.826;10.880;2023-02-11T02:46:08;100434;;;-1.29;81.18
4326;BME280;58429;49.826;10.880;2023-02-11T02:46:57;100433;;;-1.28;81.18
4326;BME280;58429;49.826;10.880;2023-02-11T02:47:57;100432;;;-1.28;81.19
4326;BME280;58429;49.826;10.880;2023-02-11T02:48:58;100433;;;-1.27;81.16
4326;BME280;58429;49.826;10.880;2023-02-11T02:49:58;100432;;;-1.26;81.14
4326;BME280;58429;49.826;10.880;2023-02-11T02:51:00;100434;;;-1.24;81.17
4326;BME280;58429;49.826;10.880;2023-02-11T02:52:01;100431;;;-1.24;81.25
4326;BME280;58429;49.826;10.880;2023-02-11T02:53:02;100431;;;-1.25;81.38
4326;BME280;58429;49.826;10.880;2023-02-11T02:54:02;100434;;;-1.24;81.35
4326;BME280;58429;49.826;10.880;2023-02-11T02:55:02;100427;;;-1.24;81.29
4326;BME280;58429;49.826;10.880;2023-02-11T02:55:59;100418;;;-1.24;81.25
4326;BME280;58429;49.826;10.880;2023-02-11T02:57:00;100422;;;-1.23;81.25
4326;BME280;58429;49.826;10.880;2023-02-11T02:58:10;100422;;;-1.23;81.22
4326;BME280;58429;49.826;10.880;2023-02-11T02:59:04;100427;;;-1.21;81.21
4326;BME280;58429;49.826;10.880;2023-02-11T03:00:09;100424;;;-1.21;81.29
4326;BME280;58429;49.826;10.880;2023-02-11T03:00:58;100424;;;-1.19;81.32
4326;BME280;58429;49.826;10.880;2023-02-11T03:01:59;100422;;;-1.16;81.32
4326;BME280;58429;49.826;10.880;2023-02-11T03:03:02;100420;;;-1.14;81.34
4326;BME280;58429;49.826;10.880;2023-02-11T03:04:00;100422;;;-1.15;81.35
4326;BME280;58429;49.826;10.880;2023-02-11T03:04:59;100431;;;-1.14;81.56
4326;BME280;58429;49.826;10.880;2023-02-11T03:05:59;100433;;;-1.09;81.78
4326;BME280;58429;49.826;10.880;2023-02-11T03:07:00;100440;;;-1.11;81.86
4326;BME280;58429;49.826;10.880;2023-02-11T03:07:59;100448;;;-1.05;82.05
4326;BME280;58429;49.826;10.880;2023-02-11T03:08:58;100439;;;-1.06;82.03
4326;BME280;58429;49.826;10.880;2023-02-11T03:09:58;100438;;;-1.05;82.14
4326;BME280;58429;49.826;10.880;2023-02-11T03:10:58;100437;;;-1.03;82.19
4326;BME280;58429;49.826;10.880;2023-02-11T03:11:58;100432;;;-0.98;82.16
4326;BME280;58429;49.826;10.880;2023-02-11T03:12:58;100431;;;-0.98;82.06
4326;BME280;58429;49.826;10.880;2023-02-11T03:13:57;100438;;;-0.98;82.13
4326;BME280;58429;49.826;10.880;2023-02-11T03:14:57;100436;;;-0.93;82.04
4326;BME280;58429;49.826;10.880;2023-02-11T03:15:58;100440;;;-0.92;81.98
4326;BME280;58429;49.826;10.880;2023-02-11T03:16:58;100434;;;-0.92;81.81
4326;BME280;58429;49.826;10.880;2023-02-11T03:17:58;100428;;;-0.9;81.67
4326;BME280;58429;49.826;10.880;2023-02-11T03:19:00;100421;;;-0.85;81.55
4326;BME280;58429;49.826;10.880;2023-02-11T03:19:58;100419;;;-0.86;81.43
4326;BME280;58429;49.826;10.880;2023-02-11T03:20:57;100422;;;-0.83;81.32
4326;BME280;58429;49.826;10.880;2023-02-11T03:21:58;100428;;;-0.82;81.26
4326;BME280;58429;49.826;10.880;2023-02-11T03:23:00;100426;;;-0.78;81.24
4326;BME280;58429;49.826;10.880;2023-02-11T03:23:59;100421;;;-0.78;81.25
4326;BME280;58429;49.826;10.880;2023-02-11T03:24:57;100425;;;-0.78;81.32
4326;BME280;58429;49.826;10.880;2023-02-11T03:26:00;100432;;;-0.73;81.38
4326;BME280;58429;49.826;10.880;2023-02-11T03:26:59;100428;;;-0.75;81.4
4326;BME280;58429;49.826;10.880;2023-02-11T03:27:59;100434;;;-0.76;81.35
4326;BME280;58429;49.826;10.880;2023-02-11T03:28:59;100439;;;-0.76;81.35
4326;BME280;58429;49.826;10.880;2023-02-11T03:29:58;100448;;;-0.75;81.34
4326;BME280;58429;49.826;10.880;2023-02-11T03:31:01;100442;;;-0.75;81.39
4326;BME280;58429;49.826;10.880;2023-02-11T03:31:59;100439;;;-0.71;81.52
4326;BME280;58429;49.826;10.880;2023-02-11T03:33:00;100436;;;-0.69;81.51
4326;BME280;58429;49.826;10.880;2023-02-11T03:33:59;100432;;;-0.68;81.49
4326;BME280;58429;49.826;10.880;2023-02-11T03:34:59;100431;;;-0.72;81.54
4326;BME280;58429;49.826;10.880;2023-02-11T03:35:59;100424;;;-0.67;81.55
4326;BME280;58429;49.826;10.880;2023-02-11T03:36:58;100416;;;-0.68;81.51
4326;BME280;58429;49.826;10.880;2023-02-11T03:37:58;100422;;;-0.68;81.43
4326;BME280;58429;49.826;10.880;2023-02-11T03:38:58;100417;;;-0.65;81.26
4326;BME280;58429;49.826;10.880;2023-02-11T03:39:59;100419;;;-0.65;81.22
4326;BME280;58429;49.826;10.880;2023-02-11T03:40:58;100422;;;-0.64;81.08
4326;BME280;58429;49.826;10.880;2023-02-11T03:41:58;100416;;;-0.64;80.99
4326;BME280;58429;49.826;10.880;2023-02-11T03:42:58;100424;;;-0.64;80.95
4326;BME280;58429;49.826;10.880;2023-02-11T03:43:58;100418;;;-0.6;80.92
4326;BME280;58429;49.826;10.880;2023-02-11T03:44:58;100424;;;-0.6;80.94
4326;BME280;58429;49.826;10.880;2023-02-11T03:45:58;100436;;;-0.58;80.98
4326;BME280;58429;49.826;10.880;2023-02-11T03:46:58;100436;;;-0.58;81
4326;BME280;58429;49.826;10.880;2023-02-11T03:47:59;100435;;;-0.56;80.97
4326;BME280;58429;49.826;10.880;2023-02-11T03:48:59;100430;;;-0.57;81.1
4326;BME280;58429;49.826;10.880;2023-02-11T03:49:58;100426;;;-0.57;81.12
4326;BME280;58429;49.826;10.880;2023-02-11T03:50:58;100427;;;-0.52;81.1
4326;BME280;58429;49.826;10.880;2023-02-11T03:51:58;100440;;;-0.53;81.15
4326;BME280;58429;49.826;10.880;2023-02-11T03:52:58;100433;;;-0.56;81.44
4326;BME280;58429;49.826;10.880;2023-02-11T03:53:59;100436;;;-0.52;81.48
4326;BME280;58429;49.826;10.880;2023-02-11T03:54:58;100435;;;-0.5;81.46
4326;BME280;58429;49.826;10.880;2023-02-11T03:55:59;100427;;;-0.48;81.34
4326;BME280;58429;49.826;10.880;2023-02-11T03:56:58;100423;;;-0.51;81.27
4326;BME280;58429;49.826;10.880;2023-02-11T03:57:58;100421;;;-0.47;81.14
4326;BME280;58429;49.826;10.880;2023-02-11T03:58:58;100423;;;-0.43;80.99
4326;BME280;58429;49.826;10.880;2023-02-11T03:59:58;100416;;;-0.44;80.93
4326;BME280;58429;49.826;10.880;2023-02-11T04:00:58;100418;;;-0.42;80.91
4326;BME280;58429;49.826;10.880;2023-02-11T04:01:58;100418;;;-0.43;80.94
4326;BME280;58429;49.826;10.880;2023-02-11T04:02:58;100413;;;-0.4;81.03
4326;BME280;58429;49.826;10.880;2023-02-11T04:03:58;100406;;;-0.41;81.12
4326;BME280;58429;49.826;10.880;2023-02-11T04:04:58;100414;;;-0.4;81.06
4326;BME280;58429;49.826;10.880;2023-02-11T04:05:58;100406;;;-0.39;81.01
4326;BME280;58429;49.826;10.880;2023-02-11T04:06:58;100400;;;-0.4;80.95
4326;BME280;58429;49.826;10.880;2023-02-11T04:07:58;100392;;;-0.4;80.92
4326;BME280;58429;49.826;10.880;2023-02-11T04:08:58;100389;;;-0.34;80.89
4326;BME280;58429;49.826;10.880;2023-02-11T04:09:58;100379;;;-0.39;80.88
4326;BME280;58429;49.826;10.880;2023-02-11T04:10:58;100381;;;-0.35;80.84
4326;BME280;58429;49.826;10.880;2023-02-11T04:11:58;100380;;;-0.36;80.79
4326;BME280;58429;49.826;10.880;2023-02-11T04:12:58;100369;;;-0.34;80.8
4326;BME280;58429;49.826;10.880;2023-02-11T04:13:58;100365;;;-0.35;80.7
4326;BME280;58429;49.826;10.880;2023-02-11T04:14:58;100360;;;-0.36;80.69
4326;BME280;58429;49.826;10.880;2023-02-11T04:15:58;100349;;;-0.38;80.81
4326;BME280;58429;49.826;10.880;2023-02-11T04:16:58;100345;;;-0.41;80.87
4326;BME280;58429;49.826;10.880;2023-02-11T04:17:58;100350;;;-0.4;80.93
4326;BME280;58429;49.826;10.880;2023-02-11T04:18:58;100344;;;-0.37;80.86
4326;BME280;58429;49.826;10.880;2023-02-11T04:19:58;100338;;;-0.41;80.82
4326;BME280;58429;49.826;10.880;2023-02-11T04:20:58;100345;;;-0.38;80.88
4326;BME280;58429;49.826;10.880;2023-02-11T04:21:58;100340;;;-0.36;80.93
4326;BME280;58429;49.826;10.880;2023-02-11T04:22:58;100345;;;-0.35;81.02
4326;BME280;58429;49.826;10.880;2023-02-11T04:23:58;100348;;;-0.36;81.06
4326;BME280;58429;49.826;10.880;2023-02-11T04:24:58;100352;;;-0.34;81.01
4326;BME280;58429;49.826;10.880;2023-02-11T04:25:58;100350;;;-0.33;80.98
4326;BME280;58429;49.826;10.880;2023-02-11T04:26:58;100350;;;-0.29;80.95
4326;BME280;58429;49.826;10.880;2023-02-11T04:27:58;100350;;;-0.28;80.95
4326;BME280;58429;49.826;10.880;2023-02-11T04:28:58;100343;;;-0.31;81.08
4326;BME280;58429;49.826;10.880;2023-02-11T04:29:58;100349;;;-0.29;81.07
4326;BME280;58429;49.826;10.880;2023-02-11T04:30:58;100358;;;-0.3;81.01
4326;BME280;58429;49.826;10.880;2023-02-11T04:31:58;100377;;;-0.32;80.99
4326;BME280;58429;49.826;10.880;2023-02-11T04:32:58;100378;;;-0.26;81.08
4326;BME280;58429;49.826;10.880;2023-02-11T04:33:58;100384;;;-0.27;81.21
4326;BME280;58429;49.826;10.880;2023-02-11T04:34:58;100390;;;-0.29;81.35
4326;BME280;58429;49.826;10.880;2023-02-11T04:35:58;100379;;;-0.27;81.36
4326;BME280;58429;49.826;10.880;2023-02-11T04:36:58;100378;;;-0.26;81.32
4326;BME280;58429;49.826;10.880;2023-02-11T04:37:58;100373;;;-0.24;81.39
4326;BME280;58429;49.826;10.880;2023-02-11T04:38:58;100370;;;-0.27;81.39
4326;BME280;58429;49.826;10.880;2023-02-11T04:39:58;100363;;;-0.25;81.35
4326;BME280;58429;49.826;10.880;2023-02-11T04:40:58;100365;;;-0.25;81.53
4326;BME280;58429;49.826;10.880;2023-02-11T04:41:58;100367;;;-0.23;81.41
4326;BME280;58429;49.826;10.880;2023-02-11T04:42:58;100370;;;-0.21;81.34
4326;BME280;58429;49.826;10.880;2023-02-11T04:43:58;100376;;;-0.21;81.28
4326;BME280;58429;49.826;10.880;2023-02-11T04:44:58;100366;;;-0.21;81.23
4326;BME280;58429;49.826;10.880;2023-02-11T04:45:58;100369;;;-0.17;81.14
4326;BME280;58429;49.826;10.880;2023-02-11T04:46:58;100375;;;-0.19;81.09
4326;BME280;58429;49.826;10.880;2023-02-11T04:47:58;100374;;;-0.16;81.05
4326;BME280;58429;49.826;10.880;2023-02-11T04:48:58;100378;;;-0.17;81.01
4326;BME280;58429;49.826;10.880;2023-02-11T04:49:58;100376;;;-0.18;81
4326;BME280;58429;49.826;10.880;2023-02-11T04:50:58;100376;;;-0.15;80.94
4326;BME280;58429;49.826;10.880;2023-02-11T04:51:58;100382;;;-0.14;80.9
4326;BME280;58429;49.826;10.880;2023-02-11T04:52:58;100389;;;-0.11;80.91
4326;BME280;58429;49.826;10.880;2023-02-11T04:53:58;100392;;;-0.09;80.97
4326;BME280;58429;49.826;10.880;2023-02-11T04:54:58;100383;;;-0.11;81.06
4326;BME280;58429;49.826;10.880;2023-02-11T04:55:58;100381;;;-0.11;81.1
4326;BME280;58429;49.826;10.880;2023-02-11T04:56:58;100379;;;-0.13;81.09
4326;BME280;58429;49.826;10.880;2023-02-11T04:57:58;100378;;;-0.12;81.06
4326;BME280;58429;49.826;10.880;2023-02-11T04:58:58;100374;;;-0.04;81.02
4326;BME280;58429;49.826;10.880;2023-02-11T04:59:58;100369;;;-0.06;81
4326;BME280;58429;49.826;10.880;2023-02-11T05:01:03;100366;;;-0.05;81.05
4326;BME280;58429;49.826;10.880;2023-02-11T05:01:58;100358;;;-0.03;80.97
4326;BME280;58429;49.826;10.880;2023-02-11T05:02:58;100358;;;-0.09;80.85
4326;BME280;58429;49.826;10.880;2023-02-11T05:03:58;100355;;;-0.03;80.93
4326;BME280;58429;49.826;10.880;2023-02-11T05:05:03;100349;;;-0.03;80.81
4326;BME280;58429;49.826;10.880;2023-02-11T05:05:58;100359;;;-0.02;80.84
4326;BME280;58429;49.826;10.880;2023-02-11T05:06:58;100359;;;-0.02;80.97
4326;BME280;58429;49.826;10.880;2023-02-11T05:07:58;100349;;;-0.01;80.94
4326;BME280;58429;49.826;10.880;2023-02-11T05:08:58;100350;;;0;80.94
4326;BME280;58429;49.826;10.880;2023-02-11T05:09:58;100338;;;-0.02;81
4326;BME280;58429;49.826;10.880;2023-02-11T05:10:58;100346;;;-0.03;80.97
4326;BME280;58429;49.826;10.880;2023-02-11T05:11:58;100348;;;-0.03;81.09
4326;BME280;58429;49.826;10.880;2023-02-11T05:12:58;100344;;;-0.02;81.12
4326;BME280;58429;49.826;10.880;2023-02-11T05:13:58;100345;;;-0.03;81.03
4326;BME280;58429;49.826;10.880;2023-02-11T05:14:58;100347;;;-0.02;81.06
4326;BME280;58429;49.826;10.880;2023-02-11T05:15:58;100343;;;-0.02;81.03
4326;BME280;58429;49.826;10.880;2023-02-11T05:16:58;100346;;;-0.02;80.91
4326;BME280;58429;49.826;10.880;2023-02-11T05:17:58;100343;;;0.03;80.88
4326;BME280;58429;49.826;10.880;2023-02-11T05:18:58;100329;;;0.02;80.89
4326;BME280;58429;49.826;10.880;2023-02-11T05:19:58;100324;;;0.01;81
4326;BME280;58429;49.826;10.880;2023-02-11T05:20:58;100319;;;0.02;81
4326;BME280;58429;49.826;10.880;2023-02-11T05:21:58;100321;;;-0.03;81.02
4326;BME280;58429;49.826;10.880;2023-02-11T05:22:58;100323;;;0.01;80.93
4326;BME280;58429;49.826;10.880;2023-02-11T05:23:58;100325;;;0.01;80.92
4326;BME280;58429;49.826;10.880;2023-02-11T05:24:58;100317;;;0.02;80.97
4326;BME280;58429;49.826;10.880;2023-02-11T05:25:58;100336;;;0.01;80.92
4326;BME280;58429;49.826;10.880;2023-02-11T05:26:58;100331;;;0.05;80.85
4326;BME280;58429;49.826;10.880;2023-02-11T05:27:58;100336;;;0.01;80.8
4326;BME280;58429;49.826;10.880;2023-02-11T05:28:58;100342;;;0.03;80.74